Time;durP1;ratioP1;P1;durP2;ratioP2;P2;SDS_P1;SDS_P2;PMS_P1;PMS_P2;Temp;Humidity;BMP_temperature;BMP_pressure;BME280_temperature;BME280_humidity;BME280_pressure;Samples;Min_cycle;Max_cycle;Signal;HPM_P1;HPM_P2
2022/10/05 00:01:36;;;;;;;20.20;11.50;;;;;;;7.82;93.49;101125.15;88758;1287;22025;-75
2022/10/05 00:03:42;;;;;;;18.70;10.90;;;;;;;7.84;93.48;101121.15;88743;1284;22039;-75
2022/10/05 00:05:47;;;;;;;14.80;10.40;;;;;;;7.86;93.47;101114.33;88479;1306;22058;-75
2022/10/05 00:07:53;;;;;;;17.10;11.00;;;;;;;7.88;93.58;101118.98;88520;1306;22705;-75
2022/10/05 00:09:59;;;;;;;15.40;9.30;;;;;;;7.89;93.50;101114.45;88497;1306;22071;-75
2022/10/05 00:12:14;;;;;;;14.50;9.90;;;;;;;7.92;93.51;101115.44;88756;1292;22203;-74
2022/10/05 00:14:23;;;;;;;13.80;9.90;;;;;;;7.93;93.36;101123.60;88762;1297;22036;-74
2022/10/05 00:16:30;;;;;;;11.00;9.00;;;;;;;7.95;93.35;101124.27;88754;1291;22145;-74
2022/10/05 00:18:35;;;;;;;20.10;10.70;;;;;;;7.96;93.28;101125.46;88683;1299;22078;-75
2022/10/05 00:20:41;;;;;;;14.90;9.50;;;;;;;7.96;93.18;101120.42;88661;1287;22641;-75
2022/10/05 00:22:47;;;;;;;15.50;8.60;;;;;;;7.96;93.15;101114.52;88852;1299;22087;-75
2022/10/05 00:24:56;;;;;;;15.30;9.10;;;;;;;7.96;93.03;101111.23;88567;1298;22075;-74
2022/10/05 00:27:02;;;;;;;17.60;9.40;;;;;;;7.95;93.07;101104.80;88790;1287;22594;-74
2022/10/05 00:29:16;;;;;;;13.80;9.00;;;;;;;7.94;92.92;101102.04;88822;1294;22323;-74
2022/10/05 00:31:23;;;;;;;12.50;8.30;;;;;;;7.93;92.87;101103.44;88777;1299;22023;-74
2022/10/05 00:33:28;;;;;;;11.30;8.00;;;;;;;7.93;92.94;101107.27;88783;1298;22046;-74
2022/10/05 00:35:35;;;;;;;17.50;9.10;;;;;;;7.92;92.88;101102.25;88776;1299;22117;-74
2022/10/05 00:37:41;;;;;;;12.70;8.30;;;;;;;7.92;92.80;101102.07;88763;1294;22039;-74
2022/10/05 00:39:46;;;;;;;14.70;8.60;;;;;;;7.91;92.82;101100.88;88756;1282;22121;-74
2022/10/05 00:42:08;;;;;;;15.90;9.20;;;;;;;7.91;92.92;101106.77;88537;1298;22057;-74
2022/10/05 00:44:29;;;;;;;15.90;8.10;;;;;;;7.92;92.95;101109.71;88452;1306;22081;-74
2022/10/05 00:46:42;;;;;;;13.70;8.00;;;;;;;7.93;93.04;101112.83;88713;1285;22791;-74
2022/10/05 00:48:53;;;;;;;15.50;8.00;;;;;;;7.95;93.03;101114.19;88762;1299;22022;-75
2022/10/05 00:51:23;;;;;;;9.80;7.50;;;;;;;7.97;93.00;101113.80;88760;1299;22017;-75
2022/10/05 00:53:34;;;;;;;;;;;;;;;8.00;93.08;101122.11;88760;1299;22892;-75
2022/10/05 00:55:47;;;;;;;10.80;6.90;;;;;;;8.00;93.27;101117.23;88616;1287;22155;-75
2022/10/05 00:58:02;;;;;;;9.80;7.40;;;;;;;8.07;93.29;101118.88;88776;1289;22045;-75
2022/10/05 01:00:11;;;;;;;11.60;7.40;;;;;;;8.10;93.21;101113.44;88532;1306;22067;-75
2022/10/05 01:02:22;;;;;;;11.70;7.50;;;;;;;8.14;93.26;101110.95;88744;1299;22677;-75
2022/10/05 01:04:31;;;;;;;9.50;7.20;;;;;;;8.18;93.12;101107.23;88410;1291;22141;-75
2022/10/05 01:06:41;;;;;;;11.30;7.90;;;;;;;8.22;93.18;101106.29;88503;1306;22056;-75
2022/10/05 01:08:54;;;;;;;11.80;6.70;;;;;;;8.27;93.18;101111.42;88516;1303;22083;-75
2022/10/05 01:11:06;;;;;;;12.60;7.00;;;;;;;8.31;93.09;101114.83;88521;1304;22086;-75
2022/10/05 01:13:18;;;;;;;8.90;6.80;;;;;;;8.35;93.14;101113.55;88521;1306;22610;-75
2022/10/05 01:15:27;;;;;;;18.40;8.50;;;;;;;8.39;93.04;101112.65;88767;1299;22157;-75
2022/10/05 01:17:36;;;;;;;13.80;8.40;;;;;;;8.43;92.96;101113.28;88786;1287;22545;-75
2022/10/05 01:19:53;;;;;;;11.10;7.10;;;;;;;8.47;92.94;101114.77;88785;1299;22641;-75
2022/10/05 01:22:03;;;;;;;12.70;7.60;;;;;;;8.50;92.73;101109.31;88787;1288;22013;-75
2022/10/05 01:24:44;;;;;;;10.90;6.00;;;;;;;8.53;92.64;101109.80;88799;1298;22082;-75
2022/10/05 01:27:14;;;;;;;11.10;6.80;;;;;;;8.55;92.48;101118.45;88510;1291;22070;-75
2022/10/05 01:29:22;;;;;;;13.10;7.30;;;;;;;8.58;92.57;101115.62;88787;1294;22080;-75
2022/10/05 01:31:31;;;;;;;15.20;7.70;;;;;;;8.62;92.50;101118.33;88769;1298;22024;-75
2022/10/05 01:33:39;;;;;;;12.20;7.50;;;;;;;8.66;92.55;101115.45;88486;1292;22061;-75
2022/10/05 01:35:50;;;;;;;14.60;7.20;;;;;;;8.69;92.28;101106.20;88512;1306;22191;-75
2022/10/05 01:38:05;;;;;;;8.40;6.00;;;;;;;8.74;92.27;101096.36;88452;1294;22695;-75
2022/10/05 01:40:15;;;;;;;17.10;6.60;;;;;;;8.77;92.17;101098.56;88513;1306;22064;-76
2022/10/05 01:42:28;;;;;;;10.60;6.10;;;;;;;8.79;92.02;101094.87;88761;1288;22037;-76
2022/10/05 01:44:37;;;;;;;16.20;6.80;;;;;;;8.82;92.00;101091.86;88752;1288;22747;-75
2022/10/05 01:46:44;;;;;;;14.20;7.00;;;;;;;8.84;91.94;101099.30;88756;1299;22660;-75
2022/10/05 01:49:04;;;;;;;11.10;7.40;;;;;;;8.87;92.02;101108.83;88768;1299;22046;-75
2022/10/05 01:51:18;;;;;;;11.00;6.90;;;;;;;8.89;91.86;101114.36;88732;1299;22060;-75
2022/10/05 01:53:30;;;;;;;9.00;6.60;;;;;;;8.88;91.34;101114.71;88525;1298;22088;-75
2022/10/05 01:55:40;;;;;;;8.60;6.10;;;;;;;8.87;91.35;101110.56;88510;1298;22039;-75
2022/10/05 01:57:57;;;;;;;8.70;6.50;;;;;;;8.87;91.42;101117.17;88508;1306;22650;-75
2022/10/05 02:00:08;;;;;;;10.10;7.20;;;;;;;8.88;91.43;101115.77;88509;1298;22063;-76
2022/10/05 02:02:15;;;;;;;13.00;6.60;;;;;;;8.90;91.40;101119.55;88747;1299;22055;-77
2022/10/05 02:04:23;;;;;;;14.90;6.70;;;;;;;8.91;91.35;101123.88;88525;1306;22216;-76
2022/10/05 02:06:31;;;;;;;9.20;6.70;;;;;;;8.90;91.15;101115.53;88743;1299;22586;-76
2022/10/05 02:08:43;;;;;;;11.10;6.80;;;;;;;8.90;90.98;101108.41;88776;1286;22042;-75
2022/10/05 02:10:51;;;;;;;13.40;6.80;;;;;;;8.88;90.93;101103.76;88515;1287;22080;-75
2022/10/05 02:13:00;;;;;;;16.00;7.60;;;;;;;8.89;91.01;101104.44;88769;1285;22048;-75
2022/10/05 02:15:13;;;;;;;9.50;6.80;;;;;;;8.89;90.91;101099.39;88397;1309;22011;-75
2022/10/05 02:17:22;;;;;;;14.10;6.70;;;;;;;8.87;90.84;101096.46;88764;1285;22100;-75
2022/10/05 02:19:31;;;;;;;11.50;7.00;;;;;;;8.85;90.90;101090.41;88493;1303;22690;-75
2022/10/05 02:21:36;;;;;;;18.30;7.50;;;;;;;8.83;90.83;101086.29;88506;1306;22042;-75
2022/10/05 02:23:42;;;;;;;12.00;7.30;;;;;;;8.82;90.73;101069.95;88480;1306;22231;-75
2022/10/05 02:25:48;;;;;;;16.00;6.90;;;;;;;8.79;90.73;101052.25;88481;1306;22803;-75
2022/10/05 02:27:56;;;;;;;9.40;6.20;;;;;;;8.77;90.61;101046.73;88752;1299;22002;-76
2022/10/05 02:30:04;;;;;;;9.50;6.20;;;;;;;8.78;90.76;101048.63;88465;1297;22038;-76
2022/10/05 02:32:12;;;;;;;9.70;6.40;;;;;;;8.77;90.79;101057.16;88687;1299;22042;-76
2022/10/05 02:34:28;;;;;;;8.80;6.00;;;;;;;8.77;90.66;101064.80;88749;1299;22721;-76
2022/10/05 02:36:35;;;;;;;13.50;8.20;;;;;;;8.74;90.47;101071.30;88771;1291;22015;-76
2022/10/05 02:38:53;;;;;;;13.70;6.30;;;;;;;8.74;90.58;101074.09;88772;1299;22086;-75
2022/10/05 02:41:05;;;;;;;9.20;6.40;;;;;;;8.73;90.44;101068.72;88742;1286;22027;-75
2022/10/05 02:43:20;;;;;;;13.40;6.90;;;;;;;8.71;90.63;101061.79;88747;1299;22282;-75
2022/10/05 02:45:29;;;;;;;15.40;7.20;;;;;;;8.72;90.77;101059.70;88510;1304;22051;-75
2022/10/05 02:47:39;;;;;;;14.40;8.10;;;;;;;8.70;90.67;101064.44;88503;1298;22099;-75
2022/10/05 02:49:45;;;;;;;;;;;;;;;8.69;90.67;101066.36;88754;1288;22267;-75
2022/10/05 02:51:56;;;;;;;11.70;6.60;;;;;;;8.65;90.73;101079.30;88761;1299;22032;-75
2022/10/05 02:54:07;;;;;;;9.50;6.70;;;;;;;8.66;90.77;101076.34;88776;1299;22039;-75
2022/10/05 02:56:20;;;;;;;18.00;7.70;;;;;;;8.67;90.76;101065.19;88794;1299;22040;-75
2022/10/05 02:58:28;;;;;;;12.30;7.00;;;;;;;8.65;90.71;101061.21;88760;1298;22022;-75
2022/10/05 03:00:36;;;;;;;13.40;6.70;;;;;;;8.65;90.70;101067.48;88503;1306;22044;-76
2022/10/05 03:02:43;;;;;;;9.30;7.00;;;;;;;8.66;90.81;101082.05;88776;1298;22091;-75
2022/10/05 03:04:57;;;;;;;15.00;7.50;;;;;;;8.69;90.91;101088.09;88743;1299;22703;-75
2022/10/05 03:07:11;;;;;;;11.90;7.30;;;;;;;8.72;90.97;101099.71;88493;1306;22051;-75
2022/10/05 03:09:17;;;;;;;10.00;6.30;;;;;;;8.74;90.72;101100.18;88426;1308;22053;-75
2022/10/05 03:11:33;;;;;;;11.80;6.90;;;;;;;8.74;90.72;101087.65;88498;1304;22132;-75
2022/10/05 03:13:45;;;;;;;10.80;7.20;;;;;;;8.76;90.80;101088.13;88751;1299;22608;-75
2022/10/05 03:16:06;;;;;;;14.40;7.90;;;;;;;8.76;90.85;101090.05;88744;1299;22710;-74
2022/10/05 03:18:15;;;;;;;13.60;7.40;;;;;;;8.76;90.80;101089.02;88495;1306;22108;-75
2022/10/05 03:20:29;;;;;;;11.70;7.20;;;;;;;8.76;90.78;101088.32;88490;1304;22668;-75
2022/10/05 03:22:46;;;;;;;9.80;7.10;;;;;;;8.77;90.93;101097.52;88765;1294;22080;-75
2022/10/05 03:25:04;;;;;;;11.90;6.90;;;;;;;8.77;90.78;101106.56;88503;1306;22068;-75
2022/10/05 03:27:22;;;;;;;15.30;7.90;;;;;;;8.78;90.65;101105.67;88738;1299;22057;-75
2022/10/05 03:29:34;;;;;;;16.10;7.40;;;;;;;8.78;90.72;101103.23;88493;1298;22058;-75
2022/10/05 03:31:43;;;;;;;11.80;7.30;;;;;;;8.77;90.56;101097.87;88499;1307;22069;-76
2022/10/05 03:33:52;;;;;;;10.80;6.70;;;;;;;8.77;90.47;101100.65;88619;1302;22704;-75
2022/10/05 03:36:03;;;;;;;12.70;7.30;;;;;;;8.77;90.60;101097.52;88751;1289;22019;-75
2022/10/05 03:38:14;;;;;;;10.80;6.90;;;;;;;8.76;90.56;101095.96;88745;1299;22047;-75
2022/10/05 03:40:28;;;;;;;11.10;6.90;;;;;;;8.77;90.65;101088.48;88489;1298;22627;-75
2022/10/05 03:42:39;;;;;;;13.90;8.40;;;;;;;8.77;90.66;101079.08;88764;1303;22084;-75
2022/10/05 03:44:50;;;;;;;12.40;6.80;;;;;;;8.79;90.82;101073.48;88752;1298;22032;-75
2022/10/05 03:47:06;;;;;;;15.30;7.50;;;;;;;8.82;90.79;101071.16;88607;1292;22101;-75
2022/10/05 03:49:15;;;;;;;10.30;6.70;;;;;;;8.83;90.76;101074.09;88518;1309;22052;-75
2022/10/05 03:51:27;;;;;;;7.60;6.80;;;;;;;8.84;90.73;101081.73;88621;1287;22051;-76
2022/10/05 03:53:34;;;;;;;8.90;6.40;;;;;;;8.83;90.70;101085.23;88782;1301;22617;-75
2022/10/05 03:55:43;;;;;;;11.10;7.20;;;;;;;8.84;90.57;101086.42;88752;1286;22086;-75
2022/10/05 03:57:49;;;;;;;9.30;7.00;;;;;;;8.83;90.41;101080.18;88497;1309;22032;-75
2022/10/05 04:00:03;;;;;;;11.00;7.60;;;;;;;8.82;90.41;101076.02;88489;1305;22054;-76
2022/10/05 04:02:15;;;;;;;15.90;7.60;;;;;;;8.81;90.36;101067.52;88737;1300;21995;-76
2022/10/05 04:04:24;;;;;;;15.10;7.00;;;;;;;8.83;90.54;101066.63;88504;1298;22034;-75
2022/10/05 04:06:32;;;;;;;10.10;6.70;;;;;;;8.83;90.35;101065.05;88739;1302;22032;-75
2022/10/05 04:08:41;;;;;;;12.30;6.80;;;;;;;8.84;90.39;101060.52;88753;1300;22088;-75
2022/10/05 04:10:49;;;;;;;14.50;8.30;;;;;;;8.82;90.34;101058.98;88747;1292;21983;-75
2022/10/05 04:12:57;;;;;;;10.10;6.40;;;;;;;8.82;90.43;101059.33;88768;1302;22037;-75
2022/10/05 04:15:06;;;;;;;11.60;7.60;;;;;;;8.84;90.56;101062.08;88765;1302;22100;-76
2022/10/05 04:17:13;;;;;;;11.30;7.00;;;;;;;8.86;90.55;101060.13;88479;1310;22068;-76
2022/10/05 04:19:22;;;;;;;9.90;6.40;;;;;;;8.86;90.48;101062.72;88429;1307;22642;-75
2022/10/05 04:21:31;;;;;;;15.40;7.10;;;;;;;8.86;90.23;101064.45;88735;1295;22104;-75
2022/10/05 04:23:47;;;;;;;11.50;7.50;;;;;;;8.85;90.38;101069.87;88756;1292;22019;-75
2022/10/05 04:25:55;;;;;;;12.00;7.30;;;;;;;8.86;90.41;101069.00;88497;1304;22766;-75
2022/10/05 04:28:06;;;;;;;12.30;7.80;;;;;;;8.85;90.06;101072.65;88619;1300;22641;-75
2022/10/05 04:30:13;;;;;;;11.00;6.60;;;;;;;8.82;90.15;101069.59;88513;1302;22109;-75
2022/10/05 04:32:35;;;;;;;9.30;6.30;;;;;;;8.81;90.02;101075.88;88759;1300;22052;-75
2022/10/05 04:34:55;;;;;;;11.60;6.90;;;;;;;8.77;90.10;101079.25;88784;1299;22104;-75
2022/10/05 04:37:02;;;;;;;15.90;7.30;;;;;;;8.74;90.07;101082.79;88787;1293;22107;-75
2022/10/05 04:39:14;;;;;;;13.20;6.90;;;;;;;8.73;90.15;101083.33;88502;1306;22056;-76
2022/10/05 04:41:32;;;;;;;13.80;7.50;;;;;;;8.72;90.00;101079.16;88504;1299;22644;-77
2022/10/05 04:43:47;;;;;;;10.80;8.00;;;;;;;8.69;89.84;101082.36;88499;1307;22684;-75
2022/10/05 04:46:09;;;;;;;13.10;7.10;;;;;;;8.63;89.84;101083.70;88498;1306;22097;-76
2022/10/05 04:48:48;;;;;;;8.30;6.50;;;;;;;8.59;89.95;101078.91;88609;1300;22123;-76
2022/10/05 04:51:04;;;;;;;9.90;6.40;;;;;;;8.57;90.00;101076.86;88320;1307;22064;-76
2022/10/05 04:53:18;;;;;;;11.20;6.90;;;;;;;8.54;90.17;101079.17;88488;1297;22063;-75
2022/10/05 04:55:34;;;;;;;13.80;7.50;;;;;;;8.53;90.28;101080.23;88495;1299;22702;-75
2022/10/05 04:57:43;;;;;;;12.80;7.00;;;;;;;8.52;90.40;101080.08;88465;1306;22597;-75
2022/10/05 05:00:03;;;;;;;15.20;7.70;;;;;;;8.52;90.40;101085.28;88728;1294;22102;-74
2022/10/05 05:02:19;;;;;;;13.20;7.80;;;;;;;8.51;90.55;101085.81;88471;1291;22030;-75
2022/10/05 05:04:41;;;;;;;14.00;7.60;;;;;;;8.52;90.60;101090.66;88760;1281;22038;-75
2022/10/05 05:06:50;;;;;;;13.80;8.20;;;;;;;8.53;90.73;101098.83;88768;1287;21997;-74
2022/10/05 05:09:47;;;;;;;13.10;8.30;;;;;;;8.56;90.76;101100.00;88490;1301;22046;-74
2022/10/05 05:12:06;;;;;;;13.90;8.00;;;;;;;8.57;90.88;101102.25;88789;1288;22093;-73
2022/10/05 05:14:53;;;;;;;11.20;7.50;;;;;;;8.60;90.96;101096.96;88401;1300;307287;-75
2022/10/05 05:17:11;;;;;;;13.30;6.60;;;;;;;8.65;91.31;101096.00;88477;1304;22076;-76
2022/10/05 05:19:43;;;;;;;11.70;7.10;;;;;;;8.73;91.55;101096.21;88517;1305;22068;-74
2022/10/05 05:21:56;;;;;;;10.20;6.20;;;;;;;8.78;91.49;101096.48;88344;1306;22077;-74
2022/10/05 05:24:08;;;;;;;14.10;7.80;;;;;;;8.83;91.36;101098.81;88786;1299;22048;-73
2022/10/05 05:26:26;;;;;;;8.80;6.40;;;;;;;8.87;91.44;101097.86;88408;1307;22122;-72
2022/10/05 05:28:39;;;;;;;10.30;6.70;;;;;;;8.92;91.60;101091.67;88495;1305;22082;-76
2022/10/05 05:30:47;;;;;;;13.50;8.00;;;;;;;8.98;91.52;101095.03;88498;1305;22055;-76
2022/10/05 05:33:10;;;;;;;19.90;7.30;;;;;;;9.03;91.43;101093.36;88501;1305;22047;-76
2022/10/05 05:36:04;;;;;;;9.00;6.00;;;;;;;9.09;91.41;101093.60;88741;1299;22056;-76
2022/10/05 05:38:24;;;;;;;11.00;6.00;;;;;;;9.11;91.43;101078.21;88402;1303;22177;-75
2022/10/05 05:40:29;;;;;;;;;;;;;;;9.14;91.25;101070.34;88642;1299;22699;-75
2022/10/05 05:42:44;;;;;;;11.00;5.50;;;;;;;9.13;91.32;101071.42;88611;1300;22650;-76
2022/10/05 05:44:51;;;;;;;10.10;5.70;;;;;;;9.14;91.19;101083.74;88474;1306;22664;-76
2022/10/05 05:47:01;;;;;;;11.20;5.90;;;;;;;9.17;91.22;101091.69;88758;1285;22065;-76
2022/10/05 05:49:13;;;;;;;9.80;6.10;;;;;;;9.22;91.37;101094.89;88745;1292;22067;-75
2022/10/05 05:51:21;;;;;;;12.10;6.40;;;;;;;9.27;91.38;101093.38;88748;1293;22055;-75
2022/10/05 05:53:29;;;;;;;8.70;6.00;;;;;;;9.33;91.34;101091.52;88513;1298;22045;-75
2022/10/05 05:55:37;;;;;;;8.50;6.30;;;;;;;9.38;91.15;101088.47;88610;1301;22060;-75
2022/10/05 05:57:46;;;;;;;10.20;6.70;;;;;;;9.40;90.98;101087.52;88765;1299;22033;-75
2022/10/05 05:59:59;;;;;;;12.70;6.80;;;;;;;9.43;90.99;101081.89;88507;1304;22610;-75
2022/10/05 06:02:09;;;;;;;11.40;6.30;;;;;;;9.49;91.09;101089.23;88485;1306;22065;-75
2022/10/05 06:04:17;;;;;;;10.20;6.00;;;;;;;9.55;91.00;101090.70;88511;1306;22057;-75
2022/10/05 06:06:26;;;;;;;10.40;6.80;;;;;;;9.61;91.06;101088.11;88506;1306;22104;-75
2022/10/05 06:08:38;;;;;;;8.90;6.40;;;;;;;9.68;91.13;101085.34;88498;1304;22046;-76
2022/10/05 06:10:47;;;;;;;12.40;7.00;;;;;;;9.75;91.00;101086.23;88508;1303;22055;-75
2022/10/05 06:12:53;;;;;;;12.00;5.70;;;;;;;9.83;91.02;101088.65;88632;1288;22293;-75
2022/10/05 06:15:01;;;;;;;10.50;6.70;;;;;;;9.92;90.91;101089.48;88785;1299;22145;-75
2022/10/05 06:17:11;;;;;;;12.80;6.60;;;;;;;9.97;90.77;101086.23;88490;1306;22111;-72
2022/10/05 06:19:18;;;;;;;10.80;6.40;;;;;;;10.04;90.63;101089.38;88480;1306;22073;-76
2022/10/05 06:21:29;;;;;;;11.70;6.80;;;;;;;10.10;90.54;101080.19;88751;1294;22644;-76
2022/10/05 06:23:39;;;;;;;8.30;6.60;;;;;;;10.15;90.52;101073.41;88770;1299;22112;-76
2022/10/05 06:25:56;;;;;;;12.20;6.50;;;;;;;10.21;90.06;101072.23;88732;1299;23265;-76
2022/10/05 06:28:10;;;;;;;10.00;5.90;;;;;;;10.24;89.75;101078.27;88762;1294;22083;-73
2022/10/05 06:30:15;;;;;;;9.40;6.10;;;;;;;10.30;90.00;101083.18;88487;1296;22123;-74
2022/10/05 06:32:26;;;;;;;12.50;6.80;;;;;;;10.37;89.78;101090.35;88496;1298;22597;-75
2022/10/05 06:34:52;;;;;;;8.90;5.90;;;;;;;10.42;89.56;101082.70;88743;1298;22062;-73
2022/10/05 06:37:01;;;;;;;9.10;6.20;;;;;;;10.50;89.58;101063.84;88744;1287;22036;-73
2022/10/05 06:39:41;;;;;;;11.20;6.00;;;;;;;10.56;89.51;101074.30;88766;1285;22043;-73
2022/10/05 06:41:59;;;;;;;9.30;6.30;;;;;;;10.66;89.66;101081.02;88733;1296;22021;-73
2022/10/05 06:44:07;;;;;;;9.70;6.10;;;;;;;10.75;89.34;101083.23;88753;1294;22488;-73
2022/10/05 06:46:17;;;;;;;8.50;6.00;;;;;;;10.78;88.65;101089.77;88772;1298;22041;-73
2022/10/05 06:48:30;;;;;;;10.60;5.40;;;;;;;10.84;88.92;101092.39;88510;1300;22062;-73
2022/10/05 06:50:38;;;;;;;11.40;5.50;;;;;;;10.91;88.78;101098.83;88413;1307;22128;-73
2022/10/05 06:53:08;;;;;;;10.80;6.20;;;;;;;10.96;88.42;101102.87;88776;1299;22046;-73
2022/10/05 06:55:20;;;;;;;14.20;5.80;;;;;;;11.03;88.27;101103.38;88789;1297;22645;-73
2022/10/05 06:57:40;;;;;;;7.00;5.70;;;;;;;11.05;87.89;101099.83;88489;1305;22088;-74
2022/10/05 06:59:48;;;;;;;;;;;;;;;11.09;87.63;101098.49;88508;1306;22202;-74
2022/10/05 07:01:59;;;;;;;12.50;5.30;;;;;;;11.11;87.75;101098.98;88789;1294;22173;-74
2022/10/05 07:04:23;;;;;;;7.30;6.10;;;;;;;11.17;87.74;101096.00;88785;1294;22010;-74
2022/10/05 07:06:31;;;;;;;9.70;5.40;;;;;;;11.22;87.63;101095.66;88620;1300;22061;-74
2022/10/05 07:08:56;;;;;;;9.70;5.10;;;;;;;11.29;87.73;101087.96;88756;1287;22111;-74
2022/10/05 07:11:09;;;;;;;11.30;5.50;;;;;;;11.37;87.76;101087.20;88615;1290;22130;-74
2022/10/05 07:13:40;;;;;;;13.10;5.50;;;;;;;11.43;87.06;101088.42;88740;1294;22033;-74
2022/10/05 07:15:49;;;;;;;;;;;;;;;11.49;86.71;101093.17;88520;1303;22250;-74
2022/10/05 07:18:10;;;;;;;15.80;6.10;;;;;;;11.49;86.38;101088.42;88481;1303;22095;-74
2022/10/05 07:20:18;;;;;;;17.40;5.90;;;;;;;11.52;86.22;101082.55;88485;1306;22039;-74
2022/10/05 07:22:49;;;;;;;9.30;6.10;;;;;;;11.55;86.20;101086.85;88470;1298;22043;-74
2022/10/05 07:25:02;;;;;;;12.60;5.90;;;;;;;11.61;86.33;101090.65;88701;1291;22384;-74
2022/10/05 07:27:14;;;;;;;15.30;5.70;;;;;;;11.77;86.81;101082.50;88766;1287;22070;-74
2022/10/05 07:29:24;;;;;;;10.10;5.30;;;;;;;12.07;87.37;101084.00;88509;1298;22049;-74
2022/10/05 07:31:36;;;;;;;9.80;5.30;;;;;;;12.36;87.37;101080.22;88764;1288;22150;-74
2022/10/05 07:33:46;;;;;;;7.80;5.10;;;;;;;12.64;87.02;101079.95;88495;1305;22065;-74
2022/10/05 07:38:22;;;;;;;8.80;6.30;;;;;;;13.08;84.03;101074.33;88749;1297;22094;-73
2022/10/05 07:40:31;;;;;;;10.60;5.70;;;;;;;13.18;83.66;101075.71;88794;1296;22068;-73
2022/10/05 07:42:47;;;;;;;8.40;5.30;;;;;;;13.28;83.15;101070.80;88504;1305;22081;-73
2022/10/05 07:44:56;;;;;;;9.10;5.50;;;;;;;13.36;82.49;101072.42;88482;1306;22068;-73
2022/10/05 07:47:06;;;;;;;6.60;5.30;;;;;;;13.41;82.31;101068.93;88767;1291;22031;-73
2022/10/05 07:49:16;;;;;;;11.30;5.70;;;;;;;13.47;82.10;101067.64;88502;1305;22074;-74
2022/10/05 07:51:28;;;;;;;11.30;6.70;;;;;;;13.53;81.44;101062.81;88498;1305;22155;-74
2022/10/05 07:53:37;;;;;;;8.60;6.00;;;;;;;13.58;80.42;101061.95;88765;1285;22104;-74
2022/10/05 07:55:46;;;;;;;15.00;5.70;;;;;;;13.60;80.62;101060.98;88629;1299;22232;-74
2022/10/05 07:58:00;;;;;;;9.10;6.00;;;;;;;13.67;80.61;101064.55;88471;1306;22645;-75
2022/10/05 08:00:10;;;;;;;9.90;5.30;;;;;;;13.78;80.66;101062.20;88752;1287;22691;-75
2022/10/05 08:02:23;;;;;;;11.10;5.30;;;;;;;13.95;79.69;101062.20;88760;1297;22621;-75
2022/10/05 08:04:37;;;;;;;9.70;5.30;;;;;;;14.30;80.40;101054.98;88590;1302;22249;-74
2022/10/05 08:06:48;;;;;;;8.80;4.60;;;;;;;14.54;79.73;101059.05;88736;1298;22043;-74
2022/10/05 08:08:56;;;;;;;12.10;4.90;;;;;;;14.67;78.24;101062.88;88759;1297;22074;-74
2022/10/05 08:11:06;;;;;;;9.50;5.30;;;;;;;14.69;76.68;101060.86;88503;1298;22755;-74
2022/10/05 08:13:16;;;;;;;6.60;4.50;;;;;;;14.68;76.77;101053.50;88481;1306;22648;-74
2022/10/05 08:15:23;;;;;;;10.90;4.70;;;;;;;14.68;75.80;101045.64;88740;1284;22044;-74
2022/10/05 08:17:37;;;;;;;9.50;5.00;;;;;;;14.72;76.26;101042.64;88603;1301;22610;-74
2022/10/05 08:19:46;;;;;;;11.60;5.00;;;;;;;14.95;76.79;101036.48;88789;1287;21995;-74
2022/10/05 08:21:53;;;;;;;7.10;4.70;;;;;;;15.30;76.41;101038.59;88781;1287;22666;-74
2022/10/05 08:24:02;;;;;;;12.90;5.10;;;;;;;15.57;75.74;101035.16;88487;1306;22063;-74
2022/10/05 08:26:16;;;;;;;9.30;5.00;;;;;;;15.77;74.24;101033.73;88504;1298;22796;-74
2022/10/05 08:28:23;;;;;;;7.50;4.10;;;;;;;15.85;73.80;101028.91;88631;1302;22120;-74
2022/10/05 08:30:31;;;;;;;12.00;5.10;;;;;;;15.93;73.37;101025.17;88792;1298;22028;-74
2022/10/05 08:32:40;;;;;;;10.80;4.80;;;;;;;15.94;72.90;101026.88;88498;1306;22078;-74
2022/10/05 08:34:50;;;;;;;4.40;3.80;;;;;;;15.94;72.38;101028.30;88504;1306;22107;-74
2022/10/05 08:36:58;;;;;;;;;;;;;;;15.95;72.15;101035.97;88797;1299;22985;-74
2022/10/05 08:39:03;;;;;;;7.20;3.70;;;;;;;15.96;72.50;101036.96;88756;1299;22723;-74
2022/10/05 08:41:47;;;;;;;9.10;4.80;;;;;;;16.05;72.05;101036.70;88413;1307;22138;-74
2022/10/05 08:44:32;;;;;;;9.00;4.10;;;;;;;16.12;71.20;101041.30;88581;1299;22023;-74
2022/10/05 08:46:53;;;;;;;9.90;3.40;;;;;;;16.14;71.28;101038.71;88741;1299;22098;-74
2022/10/05 08:49:38;;;;;;;11.10;3.90;;;;;;;16.17;70.90;101036.61;88745;1293;22087;-74
2022/10/05 08:52:09;;;;;;;5.60;3.70;;;;;;;16.19;70.61;101041.29;88749;1298;22042;-74
2022/10/05 08:54:46;;;;;;;6.60;3.20;;;;;;;16.22;70.54;101037.63;88467;1306;22132;-74
2022/10/05 08:56:57;;;;;;;7.80;3.90;;;;;;;16.28;70.49;101034.00;88721;1292;22091;-74
2022/10/05 08:59:32;;;;;;;5.10;3.30;;;;;;;16.36;70.39;101023.86;88494;1306;22581;-74
2022/10/05 09:01:50;;;;;;;8.80;4.00;;;;;;;16.48;69.66;101014.95;88736;1286;22013;-74
2022/10/05 09:04:20;;;;;;;10.50;4.00;;;;;;;16.53;68.71;101011.36;88799;1299;22038;-74
2022/10/05 09:07:14;;;;;;;4.70;3.90;;;;;;;16.56;68.96;101014.39;88761;1278;22059;-74
2022/10/05 09:10:03;;;;;;;9.70;3.40;;;;;;;16.66;68.58;101009.09;88574;1299;22038;-74
2022/10/05 09:12:30;;;;;;;5.80;3.60;;;;;;;16.79;68.26;101002.42;88778;1298;21705;-74
2022/10/05 09:14:53;;;;;;;10.30;3.50;;;;;;;16.99;67.91;100993.95;88775;1298;22024;-74
2022/10/05 09:17:08;;;;;;;5.10;3.40;;;;;;;17.10;67.30;100989.08;88601;1287;22109;-74
2022/10/05 09:19:58;;;;;;;8.00;3.50;;;;;;;17.15;66.63;100986.91;88798;1293;22604;-74
2022/10/05 09:22:13;;;;;;;4.10;3.20;;;;;;;17.12;66.88;100985.67;88508;1298;22067;-74
2022/10/05 09:24:33;;;;;;;5.70;3.60;;;;;;;17.14;66.95;100986.61;88769;1285;22047;-74
2022/10/05 09:26:49;;;;;;;7.70;3.80;;;;;;;17.21;66.49;100983.55;88484;1306;21976;-74
2022/10/05 09:29:03;;;;;;;7.70;3.10;;;;;;;17.26;66.31;100988.71;88621;1291;22052;-74
2022/10/05 09:31:35;;;;;;;13.70;3.20;;;;;;;17.33;66.34;100990.98;88486;1298;22074;-73
2022/10/05 09:33:58;;;;;;;7.70;2.80;;;;;;;17.37;66.34;100988.48;88737;1297;22048;-75
2022/10/05 09:36:42;;;;;;;6.40;3.30;;;;;;;17.36;65.37;100979.54;88485;1306;22650;-75
2022/10/05 09:39:30;;;;;;;7.70;4.10;;;;;;;17.35;64.64;100978.04;88673;1299;22153;-74
2022/10/05 09:42:25;;;;;;;8.40;2.70;;;;;;;17.36;64.02;100978.30;88741;1297;22605;-74
2022/10/05 09:44:59;;;;;;;7.40;2.90;;;;;;;17.40;64.57;100993.04;88697;1292;21996;-74
2022/10/05 09:47:25;;;;;;;8.80;3.40;;;;;;;17.51;65.09;100996.67;88471;1291;22061;-74
2022/10/05 09:50:03;;;;;;;5.60;3.10;;;;;;;17.61;65.13;100995.40;88749;1297;22697;-74
2022/10/05 09:52:45;;;;;;;4.70;3.40;;;;;;;17.64;63.95;100994.15;88728;1297;22052;-74
2022/10/05 09:55:42;;;;;;;4.70;2.70;;;;;;;17.67;63.98;100998.73;88713;1297;22085;-74
2022/10/05 09:58:53;;;;;;;8.90;4.00;;;;;;;17.71;63.96;100996.20;88737;1298;22617;-74
2022/10/05 10:01:10;;;;;;;6.50;3.00;;;;;;;17.74;64.01;100998.92;88148;1297;22114;-73
2022/10/05 10:03:57;;;;;;;9.90;4.10;;;;;;;17.76;63.91;101000.89;88456;1306;22098;-74
2022/10/05 10:06:34;;;;;;;8.50;3.00;;;;;;;17.74;63.18;101003.30;88760;1299;22286;-74
2022/10/05 10:08:52;;;;;;;9.50;3.80;;;;;;;17.70;63.27;101007.43;88503;1298;22071;-74
2022/10/05 10:11:07;;;;;;;15.60;4.50;;;;;;;17.69;63.48;101012.22;88607;1300;22764;-74
2022/10/05 10:13:55;;;;;;;7.20;3.40;;;;;;;17.73;64.09;101019.59;88507;1306;22125;-75
2022/10/05 10:16:10;;;;;;;6.00;3.40;;;;;;;17.79;63.54;101016.98;88477;1306;22098;-74
2022/10/05 10:18:34;;;;;;;6.80;3.80;;;;;;;17.83;63.29;101017.46;88753;1299;22088;-75
2022/10/05 10:20:55;;;;;;;5.10;3.30;;;;;;;17.87;62.79;101016.89;88765;1298;22110;-75
2022/10/05 10:23:11;;;;;;;6.90;3.00;;;;;;;17.91;62.92;101018.90;88750;1278;22042;-75
2022/10/05 10:25:26;;;;;;;6.30;3.30;;;;;;;17.99;62.66;101009.80;88727;1299;22328;-75
2022/10/05 10:28:15;;;;;;;6.70;3.40;;;;;;;18.08;62.17;101006.48;88489;1298;22082;-75
2022/10/05 10:30:44;;;;;;;10.20;3.30;;;;;;;18.19;62.46;100997.16;88775;1283;22033;-75
2022/10/05 10:33:20;;;;;;;4.40;3.10;;;;;;;18.23;61.36;100996.35;88765;1287;21983;-75
2022/10/05 10:35:33;;;;;;;4.80;3.50;;;;;;;18.20;60.89;100986.46;88781;1299;22078;-75